sensor_id;sensor_type;location;lat;lon;timestamp;pressure;altitude;pressure_sealevel;temperature;humidity
64967;BME280;51710;38.732;-121.358;2023-02-04T00:02:03;101939.50;;;14.94;67.43
64967;BME280;51710;38.732;-121.358;2023-02-04T00:04:30;101944.59;;;14.97;67.36
64967;BME280;51710;38.732;-121.358;2023-02-04T00:06:56;101941.91;;;14.97;67.03
64967;BME280;51710;38.732;-121.358;2023-02-04T00:09:22;101947.44;;;14.96;66.89
64967;BME280;51710;38.732;-121.358;2023-02-04T00:11:49;101941.81;;;14.89;66.53
64967;BME280;51710;38.732;-121.358;2023-02-04T00:14:15;101934.75;;;14.80;66.64
64967;BME280;51710;38.732;-121.358;2023-02-04T00:16:42;101941.72;;;14.73;66.86
64967;BME280;51710;38.732;-121.358;2023-02-04T00:19:08;101945.69;;;14.69;66.88
64967;BME280;51710;38.732;-121.358;2023-02-04T00:21:34;101937.31;;;14.72;67.37
64967;BME280;51710;38.732;-121.358;2023-02-04T00:24:01;101931.81;;;14.74;67.72
64967;BME280;51710;38.732;-121.358;2023-02-04T00:26:27;101928.31;;;14.73;67.57
64967;BME280;51710;38.732;-121.358;2023-02-04T00:28:53;101932.66;;;14.74;67.54
64967;BME280;51710;38.732;-121.358;2023-02-04T00:31:20;101931.53;;;14.77;68.00
64967;BME280;51710;38.732;-121.358;2023-02-04T00:33:46;101928.34;;;14.81;67.87
64967;BME280;51710;38.732;-121.358;2023-02-04T00:36:12;101928.72;;;14.86;67.94
64967;BME280;51710;38.732;-121.358;2023-02-04T00:38:39;101929.09;;;14.91;67.93
64967;BME280;51710;38.732;-121.358;2023-02-04T00:41:05;101919.75;;;14.95;67.54
64967;BME280;51710;38.732;-121.358;2023-02-04T00:43:31;101921.22;;;14.90;67.01
64967;BME280;51710;38.732;-121.358;2023-02-04T00:45:58;101919.03;;;14.85;67.61
64967;BME280;51710;38.732;-121.358;2023-02-04T00:48:25;101924.66;;;14.82;67.64
64967;BME280;51710;38.732;-121.358;2023-02-04T00:50:51;101928.69;;;14.78;67.43
64967;BME280;51710;38.732;-121.358;2023-02-04T00:53:18;101926.44;;;14.74;66.94
64967;BME280;51710;38.732;-121.358;2023-02-04T00:55:45;101928.44;;;14.72;66.35
64967;BME280;51710;38.732;-121.358;2023-02-04T00:58:11;101938.34;;;14.71;66.70
64967;BME280;51710;38.732;-121.358;2023-02-04T01:00:37;101943.69;;;14.71;66.22
64967;BME280;51710;38.732;-121.358;2023-02-04T01:03:04;101941.19;;;14.70;66.25
64967;BME280;51710;38.732;-121.358;2023-02-04T01:05:30;101936.78;;;14.68;66.14
64967;BME280;51710;38.732;-121.358;2023-02-04T01:07:56;101928.22;;;14.65;65.80
64967;BME280;51710;38.732;-121.358;2023-02-04T01:10:23;101926.53;;;14.64;65.37
64967;BME280;51710;38.732;-121.358;2023-02-04T01:12:50;101922.47;;;14.60;65.25
64967;BME280;51710;38.732;-121.358;2023-02-04T01:15:16;101920.09;;;14.57;65.12
64967;BME280;51710;38.732;-121.358;2023-02-04T01:17:43;101922.09;;;14.55;65.08
64967;BME280;51710;38.732;-121.358;2023-02-04T01:20:10;101924.09;;;14.53;64.97
64967;BME280;51710;38.732;-121.358;2023-02-04T01:22:36;101923.53;;;14.49;64.45
64967;BME280;51710;38.732;-121.358;2023-02-04T01:25:03;101919.25;;;14.39;64.71
64967;BME280;51710;38.732;-121.358;2023-02-04T01:27:30;101927.38;;;14.29;64.41
64967;BME280;51710;38.732;-121.358;2023-02-04T01:29:56;101919.91;;;14.23;64.65
64967;BME280;51710;38.732;-121.358;2023-02-04T01:32:23;101927.41;;;14.20;64.60
64967;BME280;51710;38.732;-121.358;2023-02-04T01:34:49;101930.06;;;14.20;64.51
64967;BME280;51710;38.732;-121.358;2023-02-04T01:37:16;101932.06;;;14.18;64.63
64967;BME280;51710;38.732;-121.358;2023-02-04T01:39:42;101934.03;;;14.16;64.63
64967;BME280;51710;38.732;-121.358;2023-02-04T01:42:09;101932.53;;;14.13;64.47
64967;BME280;51710;38.732;-121.358;2023-02-04T01:44:36;101932.69;;;14.12;64.24
64967;BME280;51710;38.732;-121.358;2023-02-04T01:47:04;101930.97;;;14.11;64.41
64967;BME280;51710;38.732;-121.358;2023-02-04T01:49:30;101937.63;;;14.07;64.21
64967;BME280;51710;38.732;-121.358;2023-02-04T01:51:57;101934.84;;;13.99;64.38
64967;BME280;51710;38.732;-121.358;2023-02-04T01:54:25;101938.13;;;13.93;64.85
64967;BME280;51710;38.732;-121.358;2023-02-04T01:56:52;101936.75;;;13.89;64.99
64967;BME280;51710;38.732;-121.358;2023-02-04T01:59:20;101938.72;;;13.87;65.47
64967;BME280;51710;38.732;-121.358;2023-02-04T02:01:49;101932.97;;;13.82;65.99
64967;BME280;51710;38.732;-121.358;2023-02-04T02:04:32;101935.25;;;13.77;66.15
64967;BME280;51710;38.732;-121.358;2023-02-04T02:07:01;101931.19;;;13.73;66.50
64967;BME280;51710;38.732;-121.358;2023-02-04T02:09:29;101925.13;;;13.71;66.78
64967;BME280;51710;38.732;-121.358;2023-02-04T02:11:57;101929.09;;;13.67;66.93
64967;BME280;51710;38.732;-121.358;2023-02-04T02:14:24;101929.69;;;13.61;67.46
64967;BME280;51710;38.732;-121.358;2023-02-04T02:16:51;101913.22;;;13.55;67.96
64967;BME280;51710;38.732;-121.358;2023-02-04T02:19:32;101916.63;;;13.48;68.09
64967;BME280;51710;38.732;-121.358;2023-02-04T02:24:47;101920.22;;;13.29;68.95
64967;BME280;51710;38.732;-121.358;2023-02-04T02:27:13;101914.63;;;13.23;69.96
64967;BME280;51710;38.732;-121.358;2023-02-04T02:29:41;101919.00;;;13.14;70.72
64967;BME280;51710;38.732;-121.358;2023-02-04T02:32:09;101914.63;;;12.94;71.28
64967;BME280;51710;38.732;-121.358;2023-02-04T02:34:38;101918.31;;;12.74;72.30
64967;BME280;51710;38.732;-121.358;2023-02-04T02:37:06;101915.06;;;12.61;73.08
64967;BME280;51710;38.732;-121.358;2023-02-04T02:39:40;101920.00;;;12.56;73.61
64967;BME280;51710;38.732;-121.358;2023-02-04T02:42:09;101920.28;;;12.53;73.55
64967;BME280;51710;38.732;-121.358;2023-02-04T02:44:37;101918.16;;;12.47;73.86
64967;BME280;51710;38.732;-121.358;2023-02-04T02:47:03;101909.31;;;12.37;74.66
64967;BME280;51710;38.732;-121.358;2023-02-04T02:49:31;101917.44;;;12.26;75.29
64967;BME280;51710;38.732;-121.358;2023-02-04T02:51:59;101918.00;;;12.20;75.36
64967;BME280;51710;38.732;-121.358;2023-02-04T02:54:28;101926.16;;;12.18;75.41
64967;BME280;51710;38.732;-121.358;2023-02-04T02:56:55;101924.75;;;12.14;75.72
64967;BME280;51710;38.732;-121.358;2023-02-04T02:59:24;101924.19;;;12.11;75.64
64967;BME280;51710;38.732;-121.358;2023-02-04T03:01:59;101922.50;;;12.10;75.43
64967;BME280;51710;38.732;-121.358;2023-02-04T03:04:29;101919.38;;;12.05;75.97
64967;BME280;51710;38.732;-121.358;2023-02-04T03:06:56;101922.88;;;11.96;76.11
64967;BME280;51710;38.732;-121.358;2023-02-04T03:09:24;101913.72;;;11.89;76.74
64967;BME280;51710;38.732;-121.358;2023-02-04T03:11:52;101911.44;;;11.84;77.01
64967;BME280;51710;38.732;-121.358;2023-02-04T03:14:20;101907.06;;;11.74;76.37
64967;BME280;51710;38.732;-121.358;2023-02-04T03:16:49;101909.81;;;11.63;77.19
64967;BME280;51710;38.732;-121.358;2023-02-04T03:19:16;101911.19;;;11.57;77.05
64967;BME280;51710;38.732;-121.358;2023-02-04T03:21:43;101899.38;;;11.50;77.59
64967;BME280;51710;38.732;-121.358;2023-02-04T03:24:10;101910.44;;;11.46;77.71
64967;BME280;51710;38.732;-121.358;2023-02-04T03:26:37;101905.38;;;11.43;77.53
64967;BME280;51710;38.732;-121.358;2023-02-04T03:29:08;101910.69;;;11.43;78.22
64967;BME280;51710;38.732;-121.358;2023-02-04T03:31:35;101909.28;;;11.38;78.25
64967;BME280;51710;38.732;-121.358;2023-02-04T03:34:03;101919.34;;;11.35;78.22
64967;BME280;51710;38.732;-121.358;2023-02-04T03:36:30;101915.16;;;11.32;78.65
64967;BME280;51710;38.732;-121.358;2023-02-04T03:38:56;101915.44;;;11.29;78.13
64967;BME280;51710;38.732;-121.358;2023-02-04T03:41:22;101916.72;;;11.14;78.30
64967;BME280;51710;38.732;-121.358;2023-02-04T03:43:49;101922.34;;;10.91;78.96
64967;BME280;51710;38.732;-121.358;2023-02-04T03:46:16;101926.41;;;10.74;79.83
64967;BME280;51710;38.732;-121.358;2023-02-04T03:48:42;101916.16;;;10.70;79.77
64967;BME280;51710;38.732;-121.358;2023-02-04T03:51:08;101915.31;;;10.69;80.38
64967;BME280;51710;38.732;-121.358;2023-02-04T03:53:35;101916.28;;;10.68;80.22
64967;BME280;51710;38.732;-121.358;2023-02-04T03:56:01;101912.91;;;10.66;79.84
64967;BME280;51710;38.732;-121.358;2023-02-04T03:58:27;101919.97;;;10.56;80.04
64967;BME280;51710;38.732;-121.358;2023-02-04T04:00:53;101918.06;;;10.47;79.92
64967;BME280;51710;38.732;-121.358;2023-02-04T04:03:20;101912.28;;;10.42;80.40
64967;BME280;51710;38.732;-121.358;2023-02-04T04:05:46;101905.50;;;10.38;80.68
64967;BME280;51710;38.732;-121.358;2023-02-04T04:08:13;101903.34;;;10.32;80.76
64967;BME280;51710;38.732;-121.358;2023-02-04T04:10:39;101907.75;;;10.22;81.17
64967;BME280;51710;38.732;-121.358;2023-02-04T04:13:05;101908.75;;;10.10;81.48
64967;BME280;51710;38.732;-121.358;2023-02-04T04:15:32;101910.44;;;10.00;81.65
64967;BME280;51710;38.732;-121.358;2023-02-04T04:17:58;101901.97;;;9.95;82.09
64967;BME280;51710;38.732;-121.358;2023-02-04T04:20:25;101900.53;;;9.91;82.45
64967;BME280;51710;38.732;-121.358;2023-02-04T04:22:52;101892.09;;;9.86;82.44
64967;BME280;51710;38.732;-121.358;2023-02-04T04:25:19;101897.66;;;9.83;82.80
64967;BME280;51710;38.732;-121.358;2023-02-04T04:27:45;101902.25;;;9.81;82.94
64967;BME280;51710;38.732;-121.358;2023-02-04T04:30:12;101898.38;;;9.74;82.45
64967;BME280;51710;38.732;-121.358;2023-02-04T04:32:38;101901.41;;;9.69;82.78
64967;BME280;51710;38.732;-121.358;2023-02-04T04:35:04;101893.53;;;9.68;82.56
64967;BME280;51710;38.732;-121.358;2023-02-04T04:37:31;101897.44;;;9.64;82.74
64967;BME280;51710;38.732;-121.358;2023-02-04T04:39:59;101889.22;;;9.56;82.44
64967;BME280;51710;38.732;-121.358;2023-02-04T04:42:27;101894.31;;;9.48;82.63
64967;BME280;51710;38.732;-121.358;2023-02-04T04:44:53;101896.47;;;9.43;83.43
64967;BME280;51710;38.732;-121.358;2023-02-04T04:47:20;101902.41;;;9.46;83.06
64967;BME280;51710;38.732;-121.358;2023-02-04T04:49:46;101911.81;;;9.50;83.17
64967;BME280;51710;38.732;-121.358;2023-02-04T04:52:12;101911.94;;;9.49;83.52
64967;BME280;51710;38.732;-121.358;2023-02-04T04:54:39;101914.84;;;9.46;83.27
64967;BME280;51710;38.732;-121.358;2023-02-04T04:57:05;101916.75;;;9.44;83.23
64967;BME280;51710;38.732;-121.358;2023-02-04T04:59:31;101920.41;;;9.43;83.71
64967;BME280;51710;38.732;-121.358;2023-02-04T05:01:57;101918.47;;;9.45;83.68
64967;BME280;51710;38.732;-121.358;2023-02-04T05:04:24;101921.63;;;9.50;83.75
64967;BME280;51710;38.732;-121.358;2023-02-04T05:06:50;101924.75;;;9.55;83.68
64967;BME280;51710;38.732;-121.358;2023-02-04T05:09:17;101915.81;;;9.56;83.85
64967;BME280;51710;38.732;-121.358;2023-02-04T05:11:43;101918.34;;;9.57;83.65
64967;BME280;51710;38.732;-121.358;2023-02-04T05:14:09;101922.56;;;9.60;83.54
64967;BME280;51710;38.732;-121.358;2023-02-04T05:16:36;101932.59;;;9.56;83.40
64967;BME280;51710;38.732;-121.358;2023-02-04T05:19:02;101925.72;;;9.43;83.27
64967;BME280;51710;38.732;-121.358;2023-02-04T05:21:29;101925.94;;;9.18;83.42
64967;BME280;51710;38.732;-121.358;2023-02-04T05:23:55;101922.38;;;8.95;83.68
64967;BME280;51710;38.732;-121.358;2023-02-04T05:26:22;101918.97;;;8.82;83.95
64967;BME280;51710;38.732;-121.358;2023-02-04T05:28:51;101918.59;;;8.75;84.60
64967;BME280;51710;38.732;-121.358;2023-02-04T05:31:17;101912.19;;;8.78;84.96
64967;BME280;51710;38.732;-121.358;2023-02-04T05:33:43;101919.81;;;8.82;85.31
64967;BME280;51710;38.732;-121.358;2023-02-04T05:36:10;101916.94;;;8.85;85.09
64967;BME280;51710;38.732;-121.358;2023-02-04T05:38:36;101903.66;;;8.85;85.24
64967;BME280;51710;38.732;-121.358;2023-02-04T05:41:03;101904.38;;;8.87;84.80
64967;BME280;51710;38.732;-121.358;2023-02-04T05:43:29;101905.94;;;8.90;85.04
64967;BME280;51710;38.732;-121.358;2023-02-04T05:45:55;101904.03;;;8.92;84.72
64967;BME280;51710;38.732;-121.358;2023-02-04T05:48:22;101907.53;;;8.92;85.13
64967;BME280;51710;38.732;-121.358;2023-02-04T05:50:49;101911.50;;;8.98;84.90
64967;BME280;51710;38.732;-121.358;2023-02-04T05:53:18;101915.63;;;9.02;84.88
64967;BME280;51710;38.732;-121.358;2023-02-04T05:55:45;101916.84;;;9.09;85.09
64967;BME280;51710;38.732;-121.358;2023-02-04T05:58:11;101927.84;;;9.16;84.89
64967;BME280;51710;38.732;-121.358;2023-02-04T06:00:38;101924.97;;;9.19;84.85
64967;BME280;51710;38.732;-121.358;2023-02-04T06:03:04;101927.63;;;9.19;84.19
64967;BME280;51710;38.732;-121.358;2023-02-04T06:05:31;101931.25;;;9.18;84.48
64967;BME280;51710;38.732;-121.358;2023-02-04T06:07:58;101928.59;;;9.18;84.42
64967;BME280;51710;38.732;-121.358;2023-02-04T06:10:24;101924.97;;;9.19;84.54
64967;BME280;51710;38.732;-121.358;2023-02-04T06:12:50;101919.53;;;9.20;84.29
64967;BME280;51710;38.732;-121.358;2023-02-04T06:15:16;101918.69;;;9.20;84.74
64967;BME280;51710;38.732;-121.358;2023-02-04T06:17:43;101913.97;;;9.23;84.36
64967;BME280;51710;38.732;-121.358;2023-02-04T06:20:12;101918.94;;;9.28;84.54
64967;BME280;51710;38.732;-121.358;2023-02-04T06:22:38;101917.72;;;9.32;84.68
64967;BME280;51710;38.732;-121.358;2023-02-04T06:25:05;101912.06;;;9.36;84.03
64967;BME280;51710;38.732;-121.358;2023-02-04T06:27:32;101908.19;;;9.40;83.96
64967;BME280;51710;38.732;-121.358;2023-02-04T06:29:58;101911.44;;;9.44;84.03
64967;BME280;51710;38.732;-121.358;2023-02-04T06:32:25;101904.19;;;9.46;83.50
64967;BME280;51710;38.732;-121.358;2023-02-04T06:34:51;101896.97;;;9.48;83.53
64967;BME280;51710;38.732;-121.358;2023-02-04T06:37:17;101901.41;;;9.47;83.64
64967;BME280;51710;38.732;-121.358;2023-02-04T06:39:44;101899.50;;;9.49;83.49
64967;BME280;51710;38.732;-121.358;2023-02-04T06:42:10;101902.03;;;9.51;83.24
64967;BME280;51710;38.732;-121.358;2023-02-04T06:44:36;101905.28;;;9.54;83.10
64967;BME280;51710;38.732;-121.358;2023-02-04T06:47:03;101912.41;;;9.54;83.09
64967;BME280;51710;38.732;-121.358;2023-02-04T06:49:29;101912.66;;;9.51;82.44
64967;BME280;51710;38.732;-121.358;2023-02-04T06:51:55;101919.91;;;9.49;82.93
64967;BME280;51710;38.732;-121.358;2023-02-04T06:54:22;101920.28;;;9.44;82.87
64967;BME280;51710;38.732;-121.358;2023-02-04T06:56:48;101925.72;;;9.43;82.36
64967;BME280;51710;38.732;-121.358;2023-02-04T06:59:15;101924.38;;;9.37;82.45
64967;BME280;51710;38.732;-121.358;2023-02-04T07:01:41;101914.13;;;9.33;82.47
64967;BME280;51710;38.732;-121.358;2023-02-04T07:04:08;101923.41;;;9.27;82.69
64967;BME280;51710;38.732;-121.358;2023-02-04T07:06:38;101916.75;;;9.22;83.00
64967;BME280;51710;38.732;-121.358;2023-02-04T07:09:04;101919.28;;;9.23;83.15
64967;BME280;51710;38.732;-121.358;2023-02-04T07:11:30;101915.06;;;9.21;83.10
64967;BME280;51710;38.732;-121.358;2023-02-04T07:13:57;101919.06;;;9.15;82.94
64967;BME280;51710;38.732;-121.358;2023-02-04T07:16:23;101913.09;;;9.00;82.90
64967;BME280;51710;38.732;-121.358;2023-02-04T07:18:49;101911.72;;;8.84;82.87
64967;BME280;51710;38.732;-121.358;2023-02-04T07:21:15;101917.25;;;8.70;83.49
64967;BME280;51710;38.732;-121.358;2023-02-04T07:23:42;101905.50;;;8.61;83.69
64967;BME280;51710;38.732;-121.358;2023-02-04T07:26:08;101916.59;;;8.55;84.09
64967;BME280;51710;38.732;-121.358;2023-02-04T07:28:34;101913.88;;;8.44;83.93
64967;BME280;51710;38.732;-121.358;2023-02-04T07:31:01;101908.00;;;8.28;83.70
64967;BME280;51710;38.732;-121.358;2023-02-04T07:33:28;101901.41;;;8.10;84.20
64967;BME280;51710;38.732;-121.358;2023-02-04T07:35:54;101890.47;;;8.02;84.29
64967;BME280;51710;38.732;-121.358;2023-02-04T07:38:20;101875.66;;;7.99;84.58
64967;BME280;51710;38.732;-121.358;2023-02-04T07:40:47;101877.97;;;8.04;85.13
64967;BME280;51710;38.732;-121.358;2023-02-04T07:43:13;101867.97;;;8.08;85.25
64967;BME280;51710;38.732;-121.358;2023-02-04T07:45:40;101866.16;;;8.08;84.82
64967;BME280;51710;38.732;-121.358;2023-02-04T07:48:06;101855.91;;;8.04;84.76
64967;BME280;51710;38.732;-121.358;2023-02-04T07:50:33;101853.06;;;7.94;84.38
64967;BME280;51710;38.732;-121.358;2023-02-04T07:52:59;101852.91;;;7.84;84.23
64967;BME280;51710;38.732;-121.358;2023-02-04T07:55:25;101850.06;;;7.75;84.47
64967;BME280;51710;38.732;-121.358;2023-02-04T07:57:52;101859.19;;;7.71;84.62
64967;BME280;51710;38.732;-121.358;2023-02-04T08:00:20;101857.53;;;7.70;84.95
64967;BME280;51710;38.732;-121.358;2023-02-04T08:02:46;101850.31;;;7.72;84.87
64967;BME280;51710;38.732;-121.358;2023-02-04T08:05:13;101858.16;;;7.73;85.22
64967;BME280;51710;38.732;-121.358;2023-02-04T08:07:39;101864.06;;;7.77;85.20
64967;BME280;51710;38.732;-121.358;2023-02-04T08:10:07;101865.75;;;7.78;85.42
64967;BME280;51710;38.732;-121.358;2023-02-04T08:12:34;101864.72;;;7.68;85.27
64967;BME280;51710;38.732;-121.358;2023-02-04T08:15:00;101862.22;;;7.54;85.40
64967;BME280;51710;38.732;-121.358;2023-02-04T08:17:27;101860.75;;;7.50;85.56
64967;BME280;51710;38.732;-121.358;2023-02-04T08:19:53;101858.00;;;7.51;86.00
64967;BME280;51710;38.732;-121.358;2023-02-04T08:22:19;101857.25;;;7.49;85.93
64967;BME280;51710;38.732;-121.358;2023-02-04T08:24:46;101852.78;;;7.50;86.22
64967;BME280;51710;38.732;-121.358;2023-02-04T08:27:13;101851.50;;;7.55;86.58
64967;BME280;51710;38.732;-121.358;2023-02-04T08:29:39;101852.03;;;7.60;86.73
64967;BME280;51710;38.732;-121.358;2023-02-04T08:32:06;101848.44;;;7.61;86.44
64967;BME280;51710;38.732;-121.358;2023-02-04T08:34:35;101847.06;;;7.56;86.10
64967;BME280;51710;38.732;-121.358;2023-02-04T08:37:02;101838.25;;;7.55;86.29
64967;BME280;51710;38.732;-121.358;2023-02-04T08:39:28;101841.13;;;7.52;86.38
64967;BME280;51710;38.732;-121.358;2023-02-04T08:41:55;101836.88;;;7.50;86.67
64967;BME280;51710;38.732;-121.358;2023-02-04T08:44:21;101841.03;;;7.54;86.61
64967;BME280;51710;38.732;-121.358;2023-02-04T08:46:48;101842.09;;;7.51;86.29
64967;BME280;51710;38.732;-121.358;2023-02-04T08:49:14;101841.47;;;7.48;86.29
64967;BME280;51710;38.732;-121.358;2023-02-04T08:51:40;101840.75;;;7.46;86.58
64967;BME280;51710;38.732;-121.358;2023-02-04T08:54:06;101836.25;;;7.46;86.74
64967;BME280;51710;38.732;-121.358;2023-02-04T08:56:33;101839.75;;;7.47;86.38
64967;BME280;51710;38.732;-121.358;2023-02-04T08:59:00;101840.00;;;7.44;86.64
64967;BME280;51710;38.732;-121.358;2023-02-04T09:01:27;101841.91;;;7.42;86.66
64967;BME280;51710;38.732;-121.358;2023-02-04T09:03:53;101834.91;;;7.41;86.55
64967;BME280;51710;38.732;-121.358;2023-02-04T09:06:19;101834.91;;;7.41;86.20
64967;BME280;51710;38.732;-121.358;2023-02-04T09:08:46;101840.09;;;7.42;86.63
64967;BME280;51710;38.732;-121.358;2023-02-04T09:11:12;101839.13;;;7.43;86.64
64967;BME280;51710;38.732;-121.358;2023-02-04T09:13:39;101826.75;;;7.44;86.34
64967;BME280;51710;38.732;-121.358;2023-02-04T09:16:06;101824.53;;;7.38;85.89
64967;BME280;51710;38.732;-121.358;2023-02-04T09:18:32;101831.94;;;7.33;86.34
64967;BME280;51710;38.732;-121.358;2023-02-04T09:20:59;101826.25;;;7.26;85.80
64967;BME280;51710;38.732;-121.358;2023-02-04T09:23:26;101820.31;;;7.23;86.18
64967;BME280;51710;38.732;-121.358;2023-02-04T09:25:53;101829.25;;;7.22;86.58
64967;BME280;51710;38.732;-121.358;2023-02-04T09:28:19;101821.50;;;7.19;86.66
64967;BME280;51710;38.732;-121.358;2023-02-04T09:30:46;101829.66;;;7.16;86.48
64967;BME280;51710;38.732;-121.358;2023-02-04T09:33:14;101827.97;;;7.15;86.76
64967;BME280;51710;38.732;-121.358;2023-02-04T09:35:42;101822.75;;;7.13;86.57
64967;BME280;51710;38.732;-121.358;2023-02-04T09:38:08;101827.97;;;7.15;86.60
64967;BME280;51710;38.732;-121.358;2023-02-04T09:40:40;101835.19;;;7.13;86.75
64967;BME280;51710;38.732;-121.358;2023-02-04T09:43:11;101831.56;;;7.14;86.50
64967;BME280;51710;38.732;-121.358;2023-02-04T09:45:38;101831.78;;;7.11;86.34
64967;BME280;51710;38.732;-121.358;2023-02-04T09:48:05;101840.78;;;7.08;87.03
64967;BME280;51710;38.732;-121.358;2023-02-04T09:50:32;101843.44;;;7.08;86.80
64967;BME280;51710;38.732;-121.358;2023-02-04T09:53:04;101839.09;;;7.07;86.42
64967;BME280;51710;38.732;-121.358;2023-02-04T09:55:38;101844.91;;;7.00;86.03
64967;BME280;51710;38.732;-121.358;2023-02-04T09:58:18;101830.94;;;6.98;86.57
64967;BME280;51710;38.732;-121.358;2023-02-04T10:03:30;101830.94;;;6.98;86.97
64967;BME280;51710;38.732;-121.358;2023-02-04T10:05:57;101836.69;;;6.92;87.06
64967;BME280;51710;38.732;-121.358;2023-02-04T10:08:30;101833.69;;;6.83;86.15
64967;BME280;51710;38.732;-121.358;2023-02-04T10:10:58;101827.97;;;6.77;86.50
64967;BME280;51710;38.732;-121.358;2023-02-04T10:13:35;101826.72;;;6.70;86.29
64967;BME280;51710;38.732;-121.358;2023-02-04T10:16:17;101833.06;;;6.67;86.45
64967;BME280;51710;38.732;-121.358;2023-02-04T10:18:45;101829.69;;;6.65;86.38
64967;BME280;51710;38.732;-121.358;2023-02-04T10:21:21;101831.38;;;6.66;86.79
64967;BME280;51710;38.732;-121.358;2023-02-04T10:23:53;101823.31;;;6.68;86.97
64967;BME280;51710;38.732;-121.358;2023-02-04T10:26:20;101827.56;;;6.70;87.04
64967;BME280;51710;38.732;-121.358;2023-02-04T10:28:47;101823.75;;;6.74;87.04
64967;BME280;51710;38.732;-121.358;2023-02-04T10:31:34;101830.84;;;6.74;87.19
64967;BME280;51710;38.732;-121.358;2023-02-04T10:36:32;101811.91;;;6.67;86.94
64967;BME280;51710;38.732;-121.358;2023-02-04T10:39:10;101812.09;;;6.64;86.82
64967;BME280;51710;38.732;-121.358;2023-02-04T10:41:44;101802.47;;;6.63;87.30
64967;BME280;51710;38.732;-121.358;2023-02-04T10:44:16;101804.16;;;6.64;86.71
64967;BME280;51710;38.732;-121.358;2023-02-04T10:46:43;101802.81;;;6.59;86.77
64967;BME280;51710;38.732;-121.358;2023-02-04T10:49:23;101802.69;;;6.60;87.79
64967;BME280;51710;38.732;-121.358;2023-02-04T10:51:51;101799.81;;;6.63;87.33
64967;BME280;51710;38.732;-121.358;2023-02-04T10:54:24;101805.13;;;6.63;87.29
64967;BME280;51710;38.732;-121.358;2023-02-04T10:56:59;101808.81;;;6.61;86.97
64967;BME280;51710;38.732;-121.358;2023-02-04T10:59:28;101801.53;;;6.52;86.40
64967;BME280;51710;38.732;-121.358;2023-02-04T11:01:55;101806.97;;;6.36;86.69
64967;BME280;51710;38.732;-121.358;2023-02-04T11:04:23;101805.31;;;6.35;86.92
64967;BME280;51710;38.732;-121.358;2023-02-04T11:06:50;101799.25;;;6.33;86.95
64967;BME280;51710;38.732;-121.358;2023-02-04T11:09:18;101798.44;;;6.33;87.33
64967;BME280;51710;38.732;-121.358;2023-02-04T11:11:47;101791.31;;;6.33;87.10
64967;BME280;51710;38.732;-121.358;2023-02-04T11:14:32;101797.16;;;6.38;87.40
64967;BME280;51710;38.732;-121.358;2023-02-04T11:17:00;101796.00;;;6.42;87.25
64967;BME280;51710;38.732;-121.358;2023-02-04T11:19:36;101798.13;;;6.37;87.00
64967;BME280;51710;38.732;-121.358;2023-02-04T11:22:22;101798.63;;;6.30;87.42
64967;BME280;51710;38.732;-121.358;2023-02-04T11:24:49;101791.94;;;6.24;87.21
64967;BME280;51710;38.732;-121.358;2023-02-04T11:27:23;101792.16;;;6.21;87.60
64967;BME280;51710;38.732;-121.358;2023-02-04T11:29:50;101789.63;;;6.20;87.32
64967;BME280;51710;38.732;-121.358;2023-02-04T11:35:27;101776.81;;;6.26;88.07
64967;BME280;51710;38.732;-121.358;2023-02-04T11:37:54;101777.56;;;6.28;87.41
64967;BME280;51710;38.732;-121.358;2023-02-04T11:42:56;101776.53;;;6.31;87.15
64967;BME280;51710;38.732;-121.358;2023-02-04T11:45:31;101778.31;;;6.30;86.87
64967;BME280;51710;38.732;-121.358;2023-02-04T11:48:01;101774.81;;;6.30;87.39
64967;BME280;51710;38.732;-121.358;2023-02-04T11:50:33;101771.25;;;6.31;87.58
64967;BME280;51710;38.732;-121.358;2023-02-04T11:53:01;101782.00;;;6.28;87.26
64967;BME280;51710;38.732;-121.358;2023-02-04T11:55:29;101784.97;;;6.23;87.36
64967;BME280;51710;38.732;-121.358;2023-02-04T11:57:56;101776.28;;;6.21;87.94
64967;BME280;51710;38.732;-121.358;2023-02-04T12:00:26;101771.00;;;6.21;87.43
64967;BME280;51710;38.732;-121.358;2023-02-04T12:02:57;101778.00;;;6.22;87.82
64967;BME280;51710;38.732;-121.358;2023-02-04T12:05:35;101768.34;;;6.21;87.71
64967;BME280;51710;38.732;-121.358;2023-02-04T12:10:58;101771.00;;;6.21;87.91
64967;BME280;51710;38.732;-121.358;2023-02-04T12:13:26;101776.63;;;6.17;87.34
64967;BME280;51710;38.732;-121.358;2023-02-04T12:16:04;101777.13;;;6.09;87.42
64967;BME280;51710;38.732;-121.358;2023-02-04T12:18:33;101790.66;;;6.05;87.27
64967;BME280;51710;38.732;-121.358;2023-02-04T12:21:00;101787.38;;;6.01;87.47
64967;BME280;51710;38.732;-121.358;2023-02-04T12:23:28;101788.50;;;5.97;87.55
64967;BME280;51710;38.732;-121.358;2023-02-04T12:25:55;101785.31;;;5.92;87.96
64967;BME280;51710;38.732;-121.358;2023-02-04T12:28:22;101778.53;;;5.88;87.78
64967;BME280;51710;38.732;-121.358;2023-02-04T12:30:49;101778.31;;;5.91;87.96
64967;BME280;51710;38.732;-121.358;2023-02-04T12:33:15;101765.03;;;5.93;88.06
64967;BME280;51710;38.732;-121.358;2023-02-04T12:35:42;101757.75;;;5.96;88.22
64967;BME280;51710;38.732;-121.358;2023-02-04T12:38:08;101763.97;;;5.95;87.36
64967;BME280;51710;38.732;-121.358;2023-02-04T12:40:36;101770.50;;;5.90;87.74
64967;BME280;51710;38.732;-121.358;2023-02-04T12:43:03;101775.03;;;5.88;87.93
64967;BME280;51710;38.732;-121.358;2023-02-04T12:45:29;101772.22;;;5.91;88.09
64967;BME280;51710;38.732;-121.358;2023-02-04T12:47:55;101769.47;;;5.92;88.30